Time;durP1;ratioP1;P1;durP2;ratioP2;P2;SDS_P1;SDS_P2;PMS_P1;PMS_P2;Temp;Humidity;BMP_temperature;BMP_pressure;BME280_temperature;BME280_humidity;BME280_pressure;Samples;Min_cycle;Max_cycle;Signal;HPM_P1;HPM_P2
2022/02/28 00:01:24;;;;;;;;;11.75;10.25;;;;;;;;4994538;28;45443;-80
2022/02/28 00:03:53;;;;;;;;;14.75;11.50;;;;;;;;4994462;28;46390;-80
2022/02/28 00:06:19;;;;;;;;;11.75;11.00;;;;;;;;4994487;28;45461;-82
2022/02/28 00:08:44;;;;;;;;;12.00;10.00;;;;;;;;4994791;28;45430;-81
2022/02/28 00:11:10;;;;;;;;;13.50;12.00;;;;;;;;4994379;28;45648;-80
2022/02/28 00:13:35;;;;;;;;;11.50;10.00;;;;;;;;4994167;28;47200;-81
2022/02/28 00:16:00;;;;;;;;;9.25;9.25;;;;;;;;4994322;28;45426;-80
2022/02/28 00:18:26;;;;;;;;;12.50;9.75;;;;;;;;4976632;28;45441;-81
2022/02/28 00:20:51;;;;;;;;;17.25;14.00;;;;;;;;4992340;28;45585;-81
2022/02/28 00:23:17;;;;;;;;;15.00;12.00;;;;;;;;4994554;28;46092;-80
2022/02/28 00:25:42;;;;;;;;;16.00;12.25;;;;;;;;4994880;28;45543;-80
2022/02/28 00:28:07;;;;;;;;;13.50;10.25;;;;;;;;5013012;28;45394;-79
2022/02/28 00:30:36;;;;;;;;;12.50;11.25;;;;;;;;4997712;28;45551;-81
2022/02/28 00:33:01;;;;;;;;;14.75;12.00;;;;;;;;4997784;28;48067;-79
2022/02/28 00:35:27;;;;;;;;;13.00;11.50;;;;;;;;4998117;28;45863;-80
2022/02/28 00:37:52;;;;;;;;;21.25;16.75;;;;;;;;4997696;28;45401;-80
2022/02/28 00:40:17;;;;;;;;;16.75;13.75;;;;;;;;4999500;28;45525;-80
2022/02/28 00:42:43;;;;;;;;;11.00;11.00;;;;;;;;4997713;28;46208;-80
2022/02/28 00:45:08;;;;;;;;;10.00;10.00;;;;;;;;4997527;28;45428;-79
2022/02/28 00:47:34;;;;;;;;;11.50;10.50;;;;;;;;4997669;28;45416;-80
2022/02/28 00:49:59;;;;;;;;;19.25;11.50;;;;;;;;4997054;28;45279;-80
2022/02/28 00:52:24;;;;;;;;;12.50;11.50;;;;;;;;4997205;28;46080;-78
2022/02/28 00:54:49;;;;;;;;;10.50;10.50;;;;;;;;4996886;28;45297;-81
2022/02/28 00:57:15;;;;;;;;;11.00;10.25;;;;;;;;4997404;28;45418;-80
2022/02/28 00:59:40;;;;;;;;;15.25;12.75;;;;;;;;4997174;28;45653;-80
2022/02/28 01:02:05;;;;;;;;;12.50;11.75;;;;;;;;4997362;28;46134;-80
2022/02/28 01:04:30;;;;;;;;;10.25;9.50;;;;;;;;4997043;28;45483;-80
2022/02/28 01:06:56;;;;;;;;;11.25;10.00;;;;;;;;4997127;28;45476;-80
2022/02/28 01:09:21;;;;;;;;;10.75;10.25;;;;;;;;4996739;28;45308;-81
2022/02/28 01:11:46;;;;;;;;;10.75;9.25;;;;;;;;4997316;28;46344;-80
2022/02/28 01:14:11;;;;;;;;;15.25;13.75;;;;;;;;4997752;28;45400;-80
2022/02/28 01:16:37;;;;;;;;;11.50;11.25;;;;;;;;4996984;28;45379;-80
2022/02/28 01:19:03;;;;;;;;;13.25;12.00;;;;;;;;4996917;28;45473;-80
2022/02/28 01:21:28;;;;;;;;;10.25;9.00;;;;;;;;4996867;28;46551;-80
2022/02/28 01:23:53;;;;;;;;;13.25;9.00;;;;;;;;4996426;28;45316;-80
2022/02/28 01:26:18;;;;;;;;;9.00;8.50;;;;;;;;4997724;28;45303;-81
2022/02/28 01:28:44;;;;;;;;;14.25;10.75;;;;;;;;4996925;28;45334;-80
2022/02/28 01:31:09;;;;;;;;;11.75;10.75;;;;;;;;4996709;28;46319;-81
2022/02/28 01:33:34;;;;;;;;;13.00;10.75;;;;;;;;4996961;28;45396;-80
2022/02/28 01:36:00;;;;;;;;;11.75;11.75;;;;;;;;4996759;28;45693;-81
2022/02/28 01:38:25;;;;;;;;;12.75;11.25;;;;;;;;4996228;28;45560;-81
2022/02/28 01:40:51;;;;;;;;;14.50;12.50;;;;;;;;4996776;28;45986;-81
2022/02/28 01:43:16;;;;;;;;;10.00;10.00;;;;;;;;4996459;28;45466;-81
2022/02/28 01:45:41;;;;;;;;;17.50;15.25;;;;;;;;5012013;28;45480;-81
2022/02/28 01:48:06;;;;;;;;;10.50;10.50;;;;;;;;4996360;28;45506;-80
2022/02/28 01:50:32;;;;;;;;;15.75;12.75;;;;;;;;4996970;28;46504;-80
2022/02/28 01:52:57;;;;;;;;;10.50;9.50;;;;;;;;4996090;28;45361;-81
2022/02/28 01:55:23;;;;;;;;;13.50;11.50;;;;;;;;4996590;28;45262;-79
2022/02/28 01:57:49;;;;;;;;;16.25;15.75;;;;;;;;4995626;28;45640;-81
2022/02/28 02:00:16;;;;;;;;;14.50;12.25;;;;;;;;4996001;28;46009;-80
2022/02/28 02:02:41;;;;;;;;;10.25;10.00;;;;;;;;4996431;28;45389;-81
2022/02/28 02:05:07;;;;;;;;;14.50;11.00;;;;;;;;4996806;28;45449;-81
2022/02/28 02:07:32;;;;;;;;;16.25;11.50;;;;;;;;4995796;28;46317;-81
2022/02/28 02:09:58;;;;;;;;;13.00;10.00;;;;;;;;4995834;28;46921;-80
2022/02/28 02:12:24;;;;;;;;;11.25;9.25;;;;;;;;4996502;28;45519;-80
2022/02/28 02:14:50;;;;;;;;;12.75;12.75;;;;;;;;4996801;28;45330;-80
2022/02/28 02:17:15;;;;;;;;;15.00;12.25;;;;;;;;4996879;28;45447;-81
2022/02/28 02:19:43;;;;;;;;;13.25;11.00;;;;;;;;4996141;28;46139;-80
2022/02/28 02:22:09;;;;;;;;;10.00;10.00;;;;;;;;4995660;28;45307;-80
2022/02/28 02:24:34;;;;;;;;;17.00;14.25;;;;;;;;4996300;28;45443;-80
2022/02/28 02:26:59;;;;;;;;;13.00;13.00;;;;;;;;4996069;28;45550;-79
2022/02/28 02:29:24;;;;;;;;;6.75;5.25;;;;;;;;4996578;28;47004;-81
2022/02/28 02:31:49;;;;;;;;;12.50;10.00;;;;;;;;4995974;28;45477;-81
2022/02/28 02:34:15;;;;;;;;;16.25;11.50;;;;;;;;4996235;28;45453;-80
2022/02/28 02:36:41;;;;;;;;;14.75;10.75;;;;;;;;4995543;28;45626;-81
2022/02/28 02:39:07;;;;;;;;;15.00;13.75;;;;;;;;4995428;28;46091;-81
2022/02/28 02:41:32;;;;;;;;;13.75;12.75;;;;;;;;4996543;28;45762;-80
2022/02/28 02:43:57;;;;;;;;;11.75;11.00;;;;;;;;4995770;28;45456;-81
2022/02/28 02:46:22;;;;;;;;;14.00;13.75;;;;;;;;4995508;28;45413;-80
2022/02/28 02:48:47;;;;;;;;;8.00;8.00;;;;;;;;4994520;28;46225;-80
2022/02/28 02:51:16;;;;;;;;;12.75;10.75;;;;;;;;4994996;28;45488;-81
2022/02/28 02:53:41;;;;;;;;;14.00;11.00;;;;;;;;4995915;28;45427;-81
2022/02/28 02:56:07;;;;;;;;;12.25;10.75;;;;;;;;4995972;28;45499;-79
2022/02/28 02:58:32;;;;;;;;;11.50;10.00;;;;;;;;4995132;28;46931;-81
2022/02/28 03:00:57;;;;;;;;;13.75;11.75;;;;;;;;4977535;28;45534;-79
2022/02/28 03:03:22;;;;;;;;;16.75;14.00;;;;;;;;4995522;28;45535;-79
2022/02/28 03:05:49;;;;;;;;;14.00;12.00;;;;;;;;4995151;28;45353;-80
2022/02/28 03:08:14;;;;;;;;;15.50;14.25;;;;;;;;4993789;28;46049;-80
2022/02/28 03:10:40;;;;;;;;;13.50;10.25;;;;;;;;4995050;28;45478;-80
2022/02/28 03:13:05;;;;;;;;;9.25;9.25;;;;;;;;4995452;28;45364;-81
2022/02/28 03:15:30;;;;;;;;;13.00;9.50;;;;;;;;4995467;28;45401;-81
2022/02/28 03:17:55;;;;;;;;;13.75;13.75;;;;;;;;4995277;28;46341;-80
2022/02/28 03:20:21;;;;;;;;;16.75;10.25;;;;;;;;4995434;28;45401;-80
2022/02/28 03:22:46;;;;;;;;;10.00;8.75;;;;;;;;4995084;28;45481;-80
2022/02/28 03:25:11;;;;;;;;;11.75;11.75;;;;;;;;4994960;28;45416;-81
2022/02/28 03:27:37;;;;;;;;;6.50;6.50;;;;;;;;4994712;28;46984;-81
2022/02/28 03:30:04;;;;;;;;;10.25;9.75;;;;;;;;4996048;28;45535;-79
2022/02/28 03:32:29;;;;;;;;;15.00;11.00;;;;;;;;4991507;28;45346;-80
2022/02/28 03:34:54;;;;;;;;;7.50;7.50;;;;;;;;4990219;28;45588;-80
2022/02/28 03:37:19;;;;;;;;;10.25;9.25;;;;;;;;4989673;28;45425;-80
2022/02/28 03:39:45;;;;;;;;;8.25;6.75;;;;;;;;4993848;28;45516;-81
2022/02/28 03:42:10;;;;;;;;;13.25;10.50;;;;;;;;4995156;28;45385;-80
2022/02/28 03:44:35;;;;;;;;;12.00;10.25;;;;;;;;4994850;28;45373;-80
2022/02/28 03:47:00;;;;;;;;;14.25;9.25;;;;;;;;4994867;28;45943;-80
2022/02/28 03:49:26;;;;;;;;;11.50;11.25;;;;;;;;4994015;28;45533;-80
2022/02/28 03:51:51;;;;;;;;;10.75;10.75;;;;;;;;4994665;28;45337;-81
2022/02/28 03:54:16;;;;;;;;;8.75;8.50;;;;;;;;4994741;28;45557;-80
2022/02/28 03:56:42;;;;;;;;;14.25;11.75;;;;;;;;4994440;28;46898;-80
2022/02/28 03:59:08;;;;;;;;;14.25;10.75;;;;;;;;4994551;28;45319;-80
2022/02/28 04:01:34;;;;;;;;;13.00;10.75;;;;;;;;4993845;28;45460;-80
2022/02/28 04:03:59;;;;;;;;;9.50;9.00;;;;;;;;4994625;28;45249;-80
2022/02/28 04:06:25;;;;;;;;;10.50;10.00;;;;;;;;4999478;28;45419;-80
2022/02/28 04:08:50;;;;;;;;;15.75;15.25;;;;;;;;5002375;28;45353;-79
2022/02/28 04:11:15;;;;;;;;;22.75;19.00;;;;;;;;4995975;28;45401;-80
2022/02/28 04:13:40;;;;;;;;;42.50;35.50;;;;;;;;4994791;28;45300;-81
2022/02/28 04:16:06;;;;;;;;;44.50;37.00;;;;;;;;4994132;28;46189;-81
2022/02/28 04:18:31;;;;;;;;;57.25;42.75;;;;;;;;4993844;28;45395;-80
2022/02/28 04:20:56;;;;;;;;;62.50;48.50;;;;;;;;4994440;28;45298;-81
2022/02/28 04:23:22;;;;;;;;;61.67;47.67;;;;;;;;4994723;28;45207;-80
2022/02/28 04:25:47;;;;;;;;;59.00;45.33;;;;;;;;4993821;28;45450;-80
2022/02/28 04:28:12;;;;;;;;;57.00;46.75;;;;;;;;4993996;28;45468;-80
2022/02/28 04:30:37;;;;;;;;;38.75;36.00;;;;;;;;4976439;28;45718;-81
2022/02/28 04:33:03;;;;;;;;;40.25;34.00;;;;;;;;4994262;28;45452;-80
2022/02/28 04:35:28;;;;;;;;;33.25;29.75;;;;;;;;4994626;28;45372;-81
2022/02/28 04:37:53;;;;;;;;;27.00;23.25;;;;;;;;4993862;28;45497;-81
2022/02/28 04:40:18;;;;;;;;;28.50;23.00;;;;;;;;4993969;28;46819;-80
2022/02/28 04:42:44;;;;;;;;;17.75;13.25;;;;;;;;4994135;28;45446;-80
2022/02/28 04:45:09;;;;;;;;;23.00;20.00;;;;;;;;4993630;28;46144;-80
2022/02/28 04:47:34;;;;;;;;;20.00;18.00;;;;;;;;4993625;28;45365;-81
2022/02/28 04:49:59;;;;;;;;;25.50;23.00;;;;;;;;4994374;28;45417;-81
2022/02/28 04:52:25;;;;;;;;;23.00;20.00;;;;;;;;5001090;28;45384;-81
2022/02/28 04:54:50;;;;;;;;;19.25;17.00;;;;;;;;5000928;28;45362;-81
2022/02/28 04:57:15;;;;;;;;;15.50;15.00;;;;;;;;4995114;28;45624;-81
2022/02/28 04:59:41;;;;;;;;;16.75;16.75;;;;;;;;4994913;28;45348;-81
2022/02/28 05:02:06;;;;;;;;;19.50;15.75;;;;;;;;4975833;28;45408;-80
2022/02/28 05:04:32;;;;;;;;;19.75;18.25;;;;;;;;4993791;28;46327;-81
2022/02/28 05:06:57;;;;;;;;;18.00;14.25;;;;;;;;4993771;28;45448;-80
2022/02/28 05:09:22;;;;;;;;;13.25;13.25;;;;;;;;4993176;28;45417;-81
2022/02/28 05:11:47;;;;;;;;;14.50;14.00;;;;;;;;4994572;28;45329;-79
2022/02/28 05:14:14;;;;;;;;;16.25;14.25;;;;;;;;4997306;28;46325;-80
2022/02/28 05:16:41;;;;;;;;;17.50;15.00;;;;;;;;4996335;28;45392;-80
2022/02/28 05:19:06;;;;;;;;;20.00;16.25;;;;;;;;4996783;28;45511;-79
2022/02/28 05:21:31;;;;;;;;;13.25;11.50;;;;;;;;4996528;28;45379;-80
2022/02/28 05:23:56;;;;;;;;;14.75;13.50;;;;;;;;4996800;28;45519;-81
2022/02/28 05:26:21;;;;;;;;;25.00;20.00;;;;;;;;4996982;28;45390;-81
2022/02/28 05:28:47;;;;;;;;;17.00;15.00;;;;;;;;4995861;28;45380;-80
2022/02/28 05:31:12;;;;;;;;;15.00;13.75;;;;;;;;4995609;28;45359;-80
2022/02/28 05:33:37;;;;;;;;;18.25;15.50;;;;;;;;5011378;28;47047;-81
2022/02/28 05:36:02;;;;;;;;;19.75;18.25;;;;;;;;4995939;28;45406;-81
2022/02/28 05:38:27;;;;;;;;;25.00;23.00;;;;;;;;4996481;28;45404;-81
2022/02/28 05:40:54;;;;;;;;;21.50;17.50;;;;;;;;4996253;28;45379;-81
2022/02/28 05:43:19;;;;;;;;;23.25;17.75;;;;;;;;4995910;28;46310;-81
2022/02/28 05:45:44;;;;;;;;;21.50;19.00;;;;;;;;4995599;28;45333;-81
2022/02/28 05:48:09;;;;;;;;;18.25;18.25;;;;;;;;4995961;28;45483;-81
2022/02/28 05:50:35;;;;;;;;;25.00;16.75;;;;;;;;4995986;28;45554;-80
2022/02/28 05:53:00;;;;;;;;;17.50;15.50;;;;;;;;4996035;28;46242;-81
2022/02/28 05:55:26;;;;;;;;;21.00;18.25;;;;;;;;4995282;28;45259;-80
2022/02/28 05:57:51;;;;;;;;;20.00;16.75;;;;;;;;4995777;28;45605;-80
2022/02/28 06:00:16;;;;;;;;;24.00;17.50;;;;;;;;4995569;28;45502;-78
2022/02/28 06:02:41;;;;;;;;;22.50;17.25;;;;;;;;4976997;28;47586;-81
2022/02/28 06:05:07;;;;;;;;;29.00;19.50;;;;;;;;4995970;28;45428;-80
2022/02/28 06:07:32;;;;;;;;;21.75;20.00;;;;;;;;4995001;28;45306;-80
2022/02/28 06:09:57;;;;;;;;;25.00;23.25;;;;;;;;4994555;28;45459;-81
2022/02/28 06:12:23;;;;;;;;;30.50;27.25;;;;;;;;4994521;28;45805;-77
2022/02/28 06:14:48;;;;;;;;;58.67;45.00;;;;;;;;4994133;28;45292;-76
2022/02/28 06:17:13;;;;;;;;;30.00;27.00;;;;;;;;4995369;28;45332;-77
2022/02/28 06:19:40;;;;;;;;;32.50;30.00;;;;;;;;4994769;28;45353;-77
2022/02/28 06:22:05;;;;;;;;;24.00;20.75;;;;;;;;4994065;28;45686;-75
2022/02/28 06:24:30;;;;;;;;;40.50;35.75;;;;;;;;4993842;28;45541;-78
2022/02/28 06:26:56;;;;;;;;;45.50;38.75;;;;;;;;4994899;28;45595;-74
2022/02/28 06:29:21;;;;;;;;;28.50;25.00;;;;;;;;4995302;28;45326;-79
2022/02/28 06:31:46;;;;;;;;;28.75;26.50;;;;;;;;4994358;28;46000;-82
2022/02/28 06:34:12;;;;;;;;;33.25;28.75;;;;;;;;4994089;28;45355;-82
2022/02/28 06:36:37;;;;;;;;;25.75;24.75;;;;;;;;4994376;28;45433;-82
2022/02/28 06:39:03;;;;;;;;;42.00;34.00;;;;;;;;4995012;28;45309;-80
2022/02/28 06:41:28;;;;;;;;;21.25;20.00;;;;;;;;4995295;28;46844;-82
2022/02/28 06:43:53;;;;;;;;;23.25;19.25;;;;;;;;4993874;28;45407;-80
2022/02/28 06:46:18;;;;;;;;;29.25;26.75;;;;;;;;4994252;28;45434;-82
2022/02/28 06:48:44;;;;;;;;;18.75;18.75;;;;;;;;4994268;28;45465;-81
2022/02/28 06:51:09;;;;;;;;;23.75;22.00;;;;;;;;4993558;28;46085;-79
2022/02/28 06:53:34;;;;;;;;;24.75;20.50;;;;;;;;4994851;28;45485;-77
2022/02/28 06:55:59;;;;;;;;;19.75;18.50;;;;;;;;4993970;28;45704;-75
2022/02/28 06:58:25;;;;;;;;;18.75;16.50;;;;;;;;4993319;28;45769;-75
2022/02/28 07:00:51;;;;;;;;;23.75;19.50;;;;;;;;4992968;28;46207;-76
2022/02/28 07:03:16;;;;;;;;;24.25;22.25;;;;;;;;4993542;28;45695;-76
2022/02/28 07:05:44;;;;;;;;;18.25;16.50;;;;;;;;4993921;28;45346;-82
2022/02/28 07:08:09;;;;;;;;;26.25;18.75;;;;;;;;4994714;28;45687;-77
2022/02/28 07:10:34;;;;;;;;;24.75;17.25;;;;;;;;4993493;28;46360;-75
2022/02/28 07:13:00;;;;;;;;;20.75;17.25;;;;;;;;4993245;28;45463;-79
2022/02/28 07:15:26;;;;;;;;;25.50;21.75;;;;;;;;4993532;28;45466;-79
2022/02/28 07:17:51;;;;;;;;;21.25;18.75;;;;;;;;4993550;28;45361;-81
2022/02/28 07:20:17;;;;;;;;;24.50;23.25;;;;;;;;4994271;28;46456;-79
2022/02/28 07:22:42;;;;;;;;;32.00;26.50;;;;;;;;4993260;28;45316;-74
2022/02/28 07:25:07;;;;;;;;;24.00;22.00;;;;;;;;4993241;28;45334;-77
2022/02/28 07:27:32;;;;;;;;;19.75;19.25;;;;;;;;5007887;28;45575;-80
2022/02/28 07:29:58;;;;;;;;;27.75;25.75;;;;;;;;4992771;28;46186;-80
2022/02/28 07:32:23;;;;;;;;;27.25;24.50;;;;;;;;4976565;28;45399;-81
2022/02/28 07:34:48;;;;;;;;;22.50;18.25;;;;;;;;4993410;28;45413;-78
2022/02/28 07:37:14;;;;;;;;;21.50;17.25;;;;;;;;4993669;28;45429;-80
2022/02/28 07:39:39;;;;;;;;;22.50;19.75;;;;;;;;4974935;28;48117;-79
2022/02/28 07:42:05;;;;;;;;;25.75;24.00;;;;;;;;4992666;28;45491;-78
2022/02/28 07:44:30;;;;;;;;;26.75;23.75;;;;;;;;4994251;28;45366;-79
2022/02/28 07:46:55;;;;;;;;;31.50;25.75;;;;;;;;4993431;28;45782;-76
2022/02/28 07:49:21;;;;;;;;;25.00;21.50;;;;;;;;4991973;28;46964;-78
2022/02/28 07:51:46;;;;;;;;;26.25;23.50;;;;;;;;4991975;28;45523;-77
2022/02/28 07:54:11;;;;;;;;;25.25;23.75;;;;;;;;4992574;28;45331;-76
2022/02/28 07:56:38;;;;;;;;;26.25;25.25;;;;;;;;4996635;28;45421;-77
2022/02/28 07:59:03;;;;;;;;;38.50;34.25;;;;;;;;4993016;28;45448;-80
2022/02/28 08:01:28;;;;;;;;;27.50;24.25;;;;;;;;4992834;28;45427;-75
2022/02/28 08:03:54;;;;;;;;;18.00;16.00;;;;;;;;4992693;28;45476;-75
2022/02/28 08:06:20;;;;;;;;;18.50;17.00;;;;;;;;4992063;28;45441;-83
2022/02/28 08:08:45;;;;;;;;;23.00;16.75;;;;;;;;4992299;28;45493;-82
2022/02/28 08:11:10;;;;;;;;;20.25;19.75;;;;;;;;4995634;28;45294;-81
2022/02/28 08:13:35;;;;;;;;;16.00;14.00;;;;;;;;4993113;28;45450;-80
2022/02/28 08:16:01;;;;;;;;;18.75;18.75;;;;;;;;4994111;28;47693;-81
2022/02/28 08:18:27;;;;;;;;;17.50;13.00;;;;;;;;4993392;28;45737;-81
2022/02/28 08:20:52;;;;;;;;;18.00;16.50;;;;;;;;4994222;28;45429;-83
2022/02/28 08:23:17;;;;;;;;;20.25;16.00;;;;;;;;4994182;28;45338;-82
2022/02/28 08:25:44;;;;;;;;;15.00;13.50;;;;;;;;4993548;28;45494;-81
2022/02/28 08:28:10;;;;;;;;;22.50;17.00;;;;;;;;4993382;28;46138;-80
2022/02/28 08:30:35;;;;;;;;;18.00;16.25;;;;;;;;4992954;28;45569;-81
2022/02/28 08:33:00;;;;;;;;;12.00;11.00;;;;;;;;4993779;28;45565;-82
2022/02/28 08:35:26;;;;;;;;;17.00;15.00;;;;;;;;4974883;28;45429;-79
2022/02/28 08:37:52;;;;;;;;;19.25;15.50;;;;;;;;4992093;28;45488;-78
2022/02/28 08:40:18;;;;;;;;;19.75;14.75;;;;;;;;4991891;28;45393;-81
2022/02/28 08:42:43;;;;;;;;;19.50;17.75;;;;;;;;4992091;28;45488;-74
2022/02/28 08:45:08;;;;;;;;;20.00;16.50;;;;;;;;4991567;28;45501;-74
2022/02/28 08:47:34;;;;;;;;;20.50;17.00;;;;;;;;4994347;28;48029;-75
2022/02/28 08:50:01;;;;;;;;;18.00;17.25;;;;;;;;4994540;28;45474;-73
2022/02/28 08:52:27;;;;;;;;;20.75;18.00;;;;;;;;4995112;28;45294;-71
2022/02/28 08:54:52;;;;;;;;;16.00;16.00;;;;;;;;4995227;28;45350;-74
2022/02/28 08:57:17;;;;;;;;;27.00;15.75;;;;;;;;4995343;28;46299;-83
2022/02/28 08:59:42;;;;;;;;;20.75;15.00;;;;;;;;4993920;28;45459;-77
2022/02/28 09:02:08;;;;;;;;;16.75;16.75;;;;;;;;4995422;28;45531;-74
2022/02/28 09:04:34;;;;;;;;;417.75;349.75;;;;;;;;4992205;28;45446;-77
2022/02/28 09:06:59;;;;;;;;;15.50;12.00;;;;;;;;4995075;28;46340;-75
2022/02/28 09:09:25;;;;;;;;;24.00;19.50;;;;;;;;4994527;28;45436;-78
2022/02/28 09:11:51;;;;;;;;;22.50;19.50;;;;;;;;4993170;28;45512;-81
2022/02/28 09:14:16;;;;;;;;;15.75;15.75;;;;;;;;4993166;28;45318;-79
2022/02/28 09:16:41;;;;;;;;;24.00;21.25;;;;;;;;4994403;28;45563;-87
2022/02/28 09:19:06;;;;;;;;;20.25;17.75;;;;;;;;4998336;28;45333;-87
2022/02/28 09:21:32;;;;;;;;;17.25;16.25;;;;;;;;4996430;28;45315;-88
2022/02/28 09:23:58;;;;;;;;;20.25;18.75;;;;;;;;4995912;28;45172;-79
2022/02/28 09:26:23;;;;;;;;;20.75;18.00;;;;;;;;4993560;28;47212;-79
2022/02/28 09:28:49;;;;;;;;;19.00;17.75;;;;;;;;4993409;28;45230;-76
2022/02/28 09:31:14;;;;;;;;;19.50;15.75;;;;;;;;4993028;28;45453;-74
2022/02/28 09:33:39;;;;;;;;;16.75;15.75;;;;;;;;4993061;28;45451;-75
2022/02/28 09:36:07;;;;;;;;;24.00;21.25;;;;;;;;4992646;28;45287;-75
2022/02/28 09:38:32;;;;;;;;;24.50;21.25;;;;;;;;4992496;28;45536;-74
2022/02/28 09:40:57;;;;;;;;;21.00;17.00;;;;;;;;4995135;28;45449;-81
2022/02/28 09:43:23;;;;;;;;;18.25;17.00;;;;;;;;4993539;28;45507;-79
2022/02/28 09:45:51;;;;;;;;;23.25;20.50;;;;;;;;4995230;28;45559;-74
2022/02/28 09:48:17;;;;;;;;;18.00;15.50;;;;;;;;4993654;28;45531;-73
2022/02/28 09:50:42;;;;;;;;;19.00;14.00;;;;;;;;4993272;28;45388;-72
2022/02/28 09:53:08;;;;;;;;;19.75;19.75;;;;;;;;4994023;28;45417;-75
2022/02/28 09:55:33;;;;;;;;;16.75;16.00;;;;;;;;4993071;28;46255;-70
2022/02/28 09:57:59;;;;;;;;;30.50;27.25;;;;;;;;4992698;28;45384;-74
2022/02/28 10:00:25;;;;;;;;;17.25;17.25;;;;;;;;4993856;28;45459;-73
2022/02/28 10:02:51;;;;;;;;;22.00;18.75;;;;;;;;4993428;28;45474;-74
2022/02/28 10:05:16;;;;;;;;;18.75;16.50;;;;;;;;4992915;28;46161;-73
2022/02/28 10:07:47;;;;;;;;;14.75;14.75;;;;;;;;4992583;28;45477;-74
2022/02/28 10:10:13;;;;;;;;;13.50;13.50;;;;;;;;4936757;28;1627760;-78
2022/02/28 10:12:39;;;;;;;;;24.75;22.75;;;;;;;;4997244;28;45480;-78
2022/02/28 10:15:05;;;;;;;;;18.00;18.00;;;;;;;;4996726;28;46278;-78
2022/02/28 10:17:57;;;;;;;;;19.00;18.00;;;;;;;;4992787;28;45447;-74
2022/02/28 10:20:29;;;;;;;;;18.75;17.75;;;;;;;;4993754;28;45363;-78
2022/02/28 10:22:55;;;;;;;;;22.75;17.25;;;;;;;;4996057;28;45459;-78
2022/02/28 10:25:25;;;;;;;;;13.75;12.00;;;;;;;;4995164;28;46109;-75
2022/02/28 10:28:09;;;;;;;;;26.50;24.75;;;;;;;;4995091;28;45334;-76
2022/02/28 10:30:35;;;;;;;;;20.50;17.25;;;;;;;;4995882;28;45440;-78
2022/02/28 10:33:07;;;;;;;;;20.50;18.00;;;;;;;;5001886;28;45498;-77
2022/02/28 10:38:21;;;;;;;;;22.50;18.25;;;;;;;;5004689;28;45350;-78
2022/02/28 10:40:46;;;;;;;;;18.75;18.00;;;;;;;;5004776;28;45389;-77
2022/02/28 10:43:22;;;;;;;;;21.25;20.00;;;;;;;;4997841;28;45535;-77
2022/02/28 10:45:47;;;;;;;;;19.75;17.75;;;;;;;;4995663;28;46168;-77
2022/02/28 10:48:12;;;;;;;;;19.75;16.75;;;;;;;;4995859;28;45504;-76
2022/02/28 10:50:39;;;;;;;;;19.50;16.25;;;;;;;;4995281;28;45365;-77
2022/02/28 10:53:09;;;;;;;;;20.25;16.75;;;;;;;;4996004;28;45291;-77
2022/02/28 10:55:35;;;;;;;;;21.75;19.50;;;;;;;;4994669;28;45777;-77
2022/02/28 10:58:24;;;;;;;;;20.75;18.50;;;;;;;;4995078;28;45614;-77
2022/02/28 11:00:53;;;;;;;;;16.50;15.50;;;;;;;;4992276;28;49161;-76
2022/02/28 11:03:19;;;;;;;;;24.00;21.00;;;;;;;;4994393;28;45491;-77
2022/02/28 11:06:03;;;;;;;;;15.50;14.50;;;;;;;;4995449;28;46276;-76
2022/02/28 11:08:28;;;;;;;;;16.75;16.00;;;;;;;;4995315;28;45530;-78
2022/02/28 11:10:54;;;;;;;;;19.00;17.00;;;;;;;;4994370;28;45239;-77
2022/02/28 11:13:20;;;;;;;;;13.50;9.25;;;;;;;;4995460;28;45259;-78
2022/02/28 11:15:46;;;;;;;;;16.50;14.75;;;;;;;;4995297;28;45552;-78
2022/02/28 11:18:16;;;;;;;;;17.00;16.25;;;;;;;;5010491;28;45710;-79
2022/02/28 11:20:41;;;;;;;;;21.00;20.25;;;;;;;;4996592;28;45274;-79
2022/02/28 11:23:07;;;;;;;;;22.50;21.00;;;;;;;;4994650;28;45645;-78
2022/02/28 11:25:32;;;;;;;;;20.75;18.00;;;;;;;;4994617;28;47309;-77
2022/02/28 11:27:59;;;;;;;;;17.00;15.50;;;;;;;;4994750;28;45409;-78
2022/02/28 11:30:27;;;;;;;;;17.50;17.50;;;;;;;;4994956;28;45474;-78
2022/02/28 11:32:57;;;;;;;;;13.00;13.00;;;;;;;;4994466;28;45384;-79
2022/02/28 11:35:34;;;;;;;;;18.25;14.75;;;;;;;;4995087;28;45560;-79
2022/02/28 11:38:00;;;;;;;;;41.25;32.50;;;;;;;;4994775;28;45311;-77
2022/02/28 11:40:30;;;;;;;;;14.75;13.25;;;;;;;;4994832;28;45469;-78
2022/02/28 11:43:07;;;;;;;;;19.25;17.00;;;;;;;;4995084;28;45580;-78
2022/02/28 11:45:32;;;;;;;;;17.00;14.75;;;;;;;;4994808;28;45386;-78
2022/02/28 11:48:36;;;;;;;;;20.00;18.25;;;;;;;;4994116;28;46095;-78
2022/02/28 11:51:05;;;;;;;;;19.50;15.25;;;;;;;;4933640;28;45299;-77
2022/02/28 11:53:36;;;;;;;;;15.75;14.25;;;;;;;;4932592;28;45564;-77
2022/02/28 11:56:22;;;;;;;;;16.00;13.75;;;;;;;;4931375;28;46416;-77
2022/02/28 11:58:49;;;;;;;;;16.00;14.00;;;;;;;;4932249;28;45509;-78
2022/02/28 12:01:16;;;;;;;;;16.75;14.50;;;;;;;;4930806;28;45558;-78
2022/02/28 12:03:48;;;;;;;;;15.25;13.50;;;;;;;;4932038;28;45538;-79
2022/02/28 12:06:33;;;;;;;;;19.50;16.25;;;;;;;;4931719;28;46306;-77
2022/02/28 12:08:58;;;;;;;;;21.25;20.25;;;;;;;;4915710;28;45448;-76
2022/02/28 12:11:28;;;;;;;;;15.00;13.00;;;;;;;;4932832;28;45366;-77
2022/02/28 12:14:04;;;;;;;;;16.50;15.25;;;;;;;;4932162;28;45529;-75
2022/02/28 12:19:33;;;;;;;;;17.75;15.50;;;;;;;;4931616;28;45493;-77
2022/02/28 12:21:59;;;;;;;;;15.25;12.25;;;;;;;;4968344;28;45419;-78
2022/02/28 12:24:43;;;;;;;;;18.75;16.50;;;;;;;;4995962;28;45781;-77
2022/02/28 12:27:14;;;;;;;;;15.25;13.75;;;;;;;;4980814;28;45455;-77
2022/02/28 12:29:40;;;;;;;;;13.25;12.75;;;;;;;;4995713;28;45366;-77
2022/02/28 12:32:06;;;;;;;;;14.50;13.75;;;;;;;;4995298;28;45372;-78
2022/02/28 12:34:34;;;;;;;;;15.00;14.00;;;;;;;;4995356;28;45418;-78
2022/02/28 12:37:01;;;;;;;;;17.50;16.50;;;;;;;;4995827;28;45663;-78
2022/02/28 12:39:26;;;;;;;;;14.00;13.25;;;;;;;;4996243;28;45312;-78
2022/02/28 12:41:56;;;;;;;;;16.00;14.25;;;;;;;;4995809;28;45356;-76
2022/02/28 12:44:21;;;;;;;;;16.00;14.75;;;;;;;;4996314;28;45506;-77
2022/02/28 12:46:53;;;;;;;;;19.75;17.25;;;;;;;;4995272;28;45443;-78
2022/02/28 12:49:19;;;;;;;;;15.50;13.50;;;;;;;;4995427;28;45481;-78
2022/02/28 12:51:47;;;;;;;;;18.00;15.50;;;;;;;;4995539;28;45467;-78
2022/02/28 12:54:23;;;;;;;;;15.25;14.25;;;;;;;;4995763;28;45389;-78
2022/02/28 12:56:59;;;;;;;;;23.75;23.25;;;;;;;;4995653;28;46026;-78
2022/02/28 12:59:32;;;;;;;;;21.00;16.75;;;;;;;;4995091;28;45326;-77
2022/02/28 13:01:58;;;;;;;;;13.00;11.75;;;;;;;;4995519;28;45545;-77
2022/02/28 13:04:23;;;;;;;;;15.00;13.00;;;;;;;;4995238;28;45599;-78
2022/02/28 13:06:48;;;;;;;;;16.25;15.75;;;;;;;;4995563;28;47300;-79
2022/02/28 13:09:15;;;;;;;;;18.00;14.50;;;;;;;;4995693;28;45524;-77
2022/02/28 13:12:03;;;;;;;;;17.25;16.25;;;;;;;;4995906;28;45446;-78
2022/02/28 13:14:28;;;;;;;;;16.50;15.75;;;;;;;;4995266;28;45492;-78
2022/02/28 13:16:54;;;;;;;;;12.25;12.25;;;;;;;;4994797;28;46505;-77
2022/02/28 13:19:21;;;;;;;;;12.50;12.50;;;;;;;;4994819;28;45523;-77
2022/02/28 13:21:56;;;;;;;;;12.00;10.25;;;;;;;;4995371;28;45362;-78
2022/02/28 13:24:22;;;;;;;;;14.00;14.00;;;;;;;;4995249;28;45338;-78
2022/02/28 13:26:48;;;;;;;;;15.75;13.75;;;;;;;;4995299;28;46124;-78
2022/02/28 13:29:14;;;;;;;;;13.00;12.50;;;;;;;;4994850;28;45267;-78
2022/02/28 13:31:41;;;;;;;;;14.00;11.75;;;;;;;;4994810;28;45387;-77
2022/02/28 13:34:08;;;;;;;;;15.25;13.75;;;;;;;;4994511;28;45421;-78
2022/02/28 13:36:40;;;;;;;;;13.25;11.50;;;;;;;;4994754;28;45586;-77
2022/02/28 13:39:07;;;;;;;;;16.00;12.25;;;;;;;;4979271;28;45271;-77
2022/02/28 13:41:37;;;;;;;;;16.00;16.00;;;;;;;;4991680;28;45259;-78
2022/02/28 13:44:07;;;;;;;;;21.25;21.25;;;;;;;;4995015;28;45536;-78
2022/02/28 13:46:32;;;;;;;;;13.75;11.00;;;;;;;;4976947;28;46123;-78
2022/02/28 13:48:57;;;;;;;;;17.50;14.25;;;;;;;;4994680;28;45480;-78
2022/02/28 13:51:23;;;;;;;;;20.00;17.75;;;;;;;;4994614;28;45366;-79
2022/02/28 13:53:48;;;;;;;;;17.25;17.25;;;;;;;;4994346;28;45363;-78
2022/02/28 13:56:28;;;;;;;;;16.75;15.75;;;;;;;;4994761;28;47207;-77
2022/02/28 13:58:53;;;;;;;;;14.50;13.00;;;;;;;;4994864;28;45549;-78
2022/02/28 14:01:18;;;;;;;;;14.25;12.00;;;;;;;;4994512;28;45468;-78
2022/02/28 14:03:58;;;;;;;;;16.50;13.25;;;;;;;;4994542;28;45480;-77
2022/02/28 14:06:23;;;;;;;;;12.25;8.75;;;;;;;;4994506;28;45276;-78
2022/02/28 14:08:48;;;;;;;;;10.00;10.00;;;;;;;;4994816;28;46444;-78
2022/02/28 14:11:14;;;;;;;;;15.25;14.25;;;;;;;;4994918;28;45409;-76
2022/02/28 14:13:40;;;;;;;;;16.50;14.50;;;;;;;;4994377;28;45552;-79
2022/02/28 14:16:21;;;;;;;;;13.00;12.00;;;;;;;;4994321;28;47238;-78
2022/02/28 14:19:05;;;;;;;;;14.75;14.75;;;;;;;;4994610;28;45271;-78
2022/02/28 14:21:31;;;;;;;;;12.25;12.25;;;;;;;;4995020;28;45477;-77